• Join FlightAware (Why Join?)
  • Login
  • US Flag 
04:04AM EST


 

Airport Tracker/Info


-or-


 

Live Flight TrackerFlight Track Log ✈ N151CL ✈ 20-06-2013 ✈ KBIV - KPTK

Flight Track Log - Related Links

Times and Time Zones

All times are in EDT time to prevent confusion due to time zone crossing. See the N151CL flight status page for this flight to view local times or setup timezone preferences in your user account.

Time Position Orientation Groundspeed Altitude Reporting Facility
EDT Latitude Longitude Course Direction KTS MPH feet Rate Location/Type
06:25PM 42.7186 -85.9933 91° East 115 132 3,100  Level Chicago Center
06:27PM 42.7158 -85.9497 95° East 115 132 3,700 480 Climbing Chicago Center
06:28PM 42.7219 -85.9083 79° East 113 130 4,100 480 Climbing Chicago Center
06:29PM 42.7331 -85.8697 69° East 112 129 4,700 360 Climbing Chicago Center
06:30PM 42.7295 -85.6437 91° East  Level FlightAware Approximate
06:30PM 42.7381 -85.8189 82° East 112 129 4,900  Level Chicago Center
06:31PM 42.7286 -85.5980 91° East  Level FlightAware Approximate
06:31PM 42.7389 -85.7731 89° East 119 137 5,000  Level Chicago Center
06:32PM 42.7406 -85.7292 87° East 118 136 5,000  Level Chicago Center
06:33PM 42.7403 -85.6856 90° East 117 135 5,000  Level Chicago Center
06:34PM 42.7394 -85.6411 91° East 117 135 5,000  Level Chicago Center
06:35PM 42.7392 -85.5989 90° East 114 131 5,000  Level Chicago Center
06:36PM 42.7386 -85.5478 91° East 113 130 5,000  Level Chicago Center
06:37PM 42.7369 -85.5050 93° East 113 130 5,000  Level Chicago Center
06:38PM 42.7367 -85.4631 91° East 112 129 5,000  Level Chicago Center
06:39PM 42.7347 -85.4203 94° East 113 130 5,000  Level Chicago Center
06:40PM 42.7328 -85.3764 93° East 116 133 5,000  Level Chicago Center
06:41PM 42.7314 -85.3239 92° East 116 133 5,000  Level Chicago Center
06:42PM 42.7303 -85.2808 92° East 115 132 5,000  Level Chicago Center
06:43PM 42.7297 -85.2372 91° East 116 133 5,000  Level Chicago Center
06:44PM 42.7281 -85.1939 93° East 115 132 5,000  Level Chicago Center
06:45PM 42.7269 -85.1506 92° East 114 131 5,000  Level Chicago Center
06:46PM 42.7267 -85.1067 90° East 116 133 5,000  Level Chicago Center
06:47PM 42.7239 -85.0544 94° East 116 133 5,000  Level Chicago Center
06:48PM 42.7242 -85.0108 89° East 116 133 5,000  Level Chicago Center
06:49PM 42.7239 -84.9681 90° East 114 131 5,000  Level Chicago Center
06:50PM 42.7219 -84.9228 93° East 119 137 5,000  Level Chicago Center
06:51PM 42.7211 -84.8769 91° East 121 139 5,000  Level Chicago Center
06:52PM 42.7175 -84.8244 95° East 117 135 5,000  Level Chicago Center
06:53PM 42.7153 -84.7814 94° East 116 133 5,000  Level Chicago Center
06:54PM 42.7147 -84.7383 91° East 113 130 5,000  Level Chicago Center
06:55PM 42.7119 -84.6978 95° East 110 127 5,000  Level Chicago Center
06:57PM 42.7114 -84.6550 91° East 112 129 5,000  Level Chicago Center